Pedhoulas Trader — C4JM2 — position and weather

sailwx.info

Track history (hours):
 
Tides and Currents Weather Stations Pressure Air Temp Water Temp Dewpoint Dewpoint Depression Visibility Wind Speed Wind Dir Waves Ship Positions

Pedhoulas Trader

Last reported at 2017-Jul-14 14:44 UTC. Time now 2017-Jul-21 18:55 UTC.
Position S 27°40' E 153°51'.

Length 229 m; draft 14.5 m.

Type: Cargo ship. MMSI: 210073000.

Date/timePositionNaut miles runAvg speedWind from/ knotsBaromVisibWave heightAir tempDewpointWater temp
2017-Jul-14 14:44S 27°40' E 153°51'310.4
2017-Jul-14 14:27S 27°43' E 153°51'510.0
2017-Jul-14 13:59S 27°48' E 153°51'285 9.8
2017-Jul-13 08:52S 32°26' E 152°40'14 9.8
2017-Jul-13 07:27S 32°38' E 152°30'510.7
2017-Jul-13 07:00S 32°41' E 152°26'510.7
2017-Jul-13 06:30S 32°45' E 152°22'510.7
2017-Jul-13 06:00S 32°49' E 152°17'510.7
2017-Jul-13 05:30S 32°51' E 152°12'510.6
2017-Jul-13 05:00S 32°53' E 152°06'510.4
2017-Jul-13 04:30S 32°54' E 151°60'510.6
2017-Jul-13 04:00S 32°56' E 151°53'4 7.6
2017-Jul-13 03:30S 32°55' E 151°49'2 4.3
2017-Jul-13 02:59S 32°55' E 151°46'1 2.5
2017-Jul-13 02:30S 32°53' E 151°46'0 0.1
2017-Jul-13 01:51S 32°53' E 151°46'0 0.0
2017-Jul-13 01:30S 32°53' E 151°46'0 0.0
2017-Jul-13 00:57S 32°53' E 151°46'0 0.0
2017-Jul-13 00:24S 32°53' E 151°46'0 0.0
2017-Jul-13 00:00S 32°53' E 151°46'0 0.0
2017-Jul-12 23:27S 32°53' E 151°46'0 0.0
2017-Jul-12 22:57S 32°53' E 151°46'0 0.0
2017-Jul-12 22:27S 32°53' E 151°46'0 0.0
2017-Jul-12 21:57S 32°53' E 151°46'0 0.0
2017-Jul-12 20:27S 32°53' E 151°46'0 0.0
2017-Jul-12 20:00S 32°53' E 151°46'0 0.0
2017-Jul-12 19:30S 32°53' E 151°46'0 0.0
2017-Jul-12 18:57S 32°53' E 151°46'0 0.0
2017-Jul-12 18:30S 32°53' E 151°46'0 0.0
2017-Jul-12 17:36S 32°53' E 151°46'0 0.0
2017-Jul-12 17:21S 32°53' E 151°46'0 0.0
2017-Jul-12 16:57S 32°53' E 151°46'0 0.0
2017-Jul-12 16:18S 32°53' E 151°46'0 0.0
2017-Jul-12 15:54S 32°53' E 151°46'0 0.0
2017-Jul-12 15:30S 32°53' E 151°46'0 0.0
2017-Jul-12 15:00S 32°53' E 151°46'0 0.0
2017-Jul-12 14:00S 32°53' E 151°46'0 0.0
2017-Jul-12 13:30S 32°53' E 151°46'0 0.0
2017-Jul-12 13:00S 32°53' E 151°46'0 0.0
2017-Jul-12 12:30S 32°53' E 151°46'0 0.0
2017-Jul-12 12:00S 32°53' E 151°46'0 0.0
2017-Jul-12 11:30S 32°53' E 151°46'0 0.0
2017-Jul-12 11:00S 32°53' E 151°46'0 0.0
2017-Jul-12 10:30S 32°53' E 151°46'0 0.0
2017-Jul-12 10:00S 32°53' E 151°46'0 0.0
2017-Jul-12 09:30S 32°53' E 151°46'0 0.0
2017-Jul-12 09:00S 32°53' E 151°46'0 0.0
2017-Jul-12 08:30S 32°53' E 151°46'0 0.0
2017-Jul-12 08:00S 32°53' E 151°46'0 0.0
2017-Jul-12 07:30S 32°53' E 151°46'0 0.0
2017-Jul-12 07:00S 32°53' E 151°46'0 0.0
2017-Jul-12 06:30S 32°53' E 151°46'0 0.0
2017-Jul-12 06:00S 32°53' E 151°46'0 0.0
2017-Jul-12 05:21S 32°53' E 151°46'0 1.4
2017-Jul-12 05:00S 32°54' E 151°46'2 4.0
2017-Jul-12 04:30S 32°55' E 151°48'5 9.6
2017-Jul-12 04:00S 32°58' E 151°52'3 6.4
2017-Jul-12 03:30S 32°57' E 151°56'4 7.9
2017-Jul-12 03:00S 32°56' E 152°00'510.4
2017-Jul-12 02:30S 32°55' E 152°06'5 9.0
2017-Jul-12 02:00S 32°53' E 152°11'510.9
2017-Jul-12 01:30S 32°49' E 152°16'611.0
2017-Jul-12 01:00S 32°45' E 152°20'611.0
2017-Jul-12 00:31S 32°41' E 152°25'611.0
2017-Jul-12 00:00S 32°37' E 152°29'611.0
2017-Jul-11 23:30S 32°33' E 152°34'611.4
2017-Jul-11 23:00S 32°29' E 152°38'611.2
2017-Jul-11 22:29S 32°24' E 152°41'711.8
2017-Jul-11 21:53S 32°17' E 152°44'1412.1
2017-Jul-11 20:43S 32°04' E 152°51'25812.2
2017-Jul-10 23:31S 27°52' E 153°57'013.2
2017-Jul-10 23:30S 27°52' E 153°57'713.0
2017-Jul-10 23:00S 27°45' E 153°57'713.2
2017-Jul-10 22:27S 27°38' E 153°57'3612.7
2017-Jul-10 19:37S 27°02' E 153°59'  
Track history (hours):
 
Tides and Currents Weather Stations Pressure Air Temp Water Temp Dewpoint Dewpoint Depression Visibility Wind Speed Wind Dir Waves Ship Positions

Pedhoulas Trader

Last reported at 2017-Jul-14 14:44 UTC. Time now 2017-Jul-21 18:55 UTC.
Position S 27°40' E 153°51'.

Length 229 m; draft 14.5 m.

Type: Cargo ship. MMSI: 210073000.

Date/timePositionNaut miles runAvg speedWind from/ knotsBaromVisibWave heightAir tempDewpointWater temp
2017-Jul-14 14:44S 27°40' E 153°51'310.4
2017-Jul-14 14:27S 27°43' E 153°51'510.0
2017-Jul-14 13:59S 27°48' E 153°51'285 9.8
2017-Jul-13 08:52S 32°26' E 152°40'14 9.8
2017-Jul-13 07:27S 32°38' E 152°30'510.7
2017-Jul-13 07:00S 32°41' E 152°26'510.7
2017-Jul-13 06:30S 32°45' E 152°22'510.7
2017-Jul-13 06:00S 32°49' E 152°17'510.7
2017-Jul-13 05:30S 32°51' E 152°12'510.6
2017-Jul-13 05:00S 32°53' E 152°06'510.4
2017-Jul-13 04:30S 32°54' E 151°60'510.6
2017-Jul-13 04:00S 32°56' E 151°53'4 7.6
2017-Jul-13 03:30S 32°55' E 151°49'2 4.3
2017-Jul-13 02:59S 32°55' E 151°46'1 2.5
2017-Jul-13 02:30S 32°53' E 151°46'0 0.1
2017-Jul-13 01:51S 32°53' E 151°46'0 0.0
2017-Jul-13 01:30S 32°53' E 151°46'0 0.0
2017-Jul-13 00:57S 32°53' E 151°46'0 0.0
2017-Jul-13 00:24S 32°53' E 151°46'0 0.0
2017-Jul-13 00:00S 32°53' E 151°46'0 0.0
2017-Jul-12 23:27S 32°53' E 151°46'0 0.0
2017-Jul-12 22:57S 32°53' E 151°46'0 0.0
2017-Jul-12 22:27S 32°53' E 151°46'0 0.0
2017-Jul-12 21:57S 32°53' E 151°46'0 0.0
2017-Jul-12 20:27S 32°53' E 151°46'0 0.0
2017-Jul-12 20:00S 32°53' E 151°46'0 0.0
2017-Jul-12 19:30S 32°53' E 151°46'0 0.0
2017-Jul-12 18:57S 32°53' E 151°46'0 0.0
2017-Jul-12 18:30S 32°53' E 151°46'0 0.0
2017-Jul-12 17:36S 32°53' E 151°46'0 0.0
2017-Jul-12 17:21S 32°53' E 151°46'0 0.0
2017-Jul-12 16:57S 32°53' E 151°46'0 0.0
2017-Jul-12 16:18S 32°53' E 151°46'0 0.0
2017-Jul-12 15:54S 32°53' E 151°46'0 0.0
2017-Jul-12 15:30S 32°53' E 151°46'0 0.0
2017-Jul-12 15:00S 32°53' E 151°46'0 0.0
2017-Jul-12 14:00S 32°53' E 151°46'0 0.0
2017-Jul-12 13:30S 32°53' E 151°46'0 0.0
2017-Jul-12 13:00S 32°53' E 151°46'0 0.0
2017-Jul-12 12:30S 32°53' E 151°46'0 0.0
2017-Jul-12 12:00S 32°53' E 151°46'0 0.0
2017-Jul-12 11:30S 32°53' E 151°46'0 0.0
2017-Jul-12 11:00S 32°53' E 151°46'0 0.0
2017-Jul-12 10:30S 32°53' E 151°46'0 0.0
2017-Jul-12 10:00S 32°53' E 151°46'0 0.0
2017-Jul-12 09:30S 32°53' E 151°46'0 0.0
2017-Jul-12 09:00S 32°53' E 151°46'0 0.0
2017-Jul-12 08:30S 32°53' E 151°46'0 0.0
2017-Jul-12 08:00S 32°53' E 151°46'0 0.0
2017-Jul-12 07:30S 32°53' E 151°46'0 0.0
2017-Jul-12 07:00S 32°53' E 151°46'0 0.0
2017-Jul-12 06:30S 32°53' E 151°46'0 0.0
2017-Jul-12 06:00S 32°53' E 151°46'0 0.0
2017-Jul-12 05:21S 32°53' E 151°46'0 1.4
2017-Jul-12 05:00S 32°54' E 151°46'2 4.0
2017-Jul-12 04:30S 32°55' E 151°48'5 9.6
2017-Jul-12 04:00S 32°58' E 151°52'3 6.4
2017-Jul-12 03:30S 32°57' E 151°56'4 7.9
2017-Jul-12 03:00S 32°56' E 152°00'510.4
2017-Jul-12 02:30S 32°55' E 152°06'5 9.0
2017-Jul-12 02:00S 32°53' E 152°11'510.9
2017-Jul-12 01:30S 32°49' E 152°16'611.0
2017-Jul-12 01:00S 32°45' E 152°20'611.0
2017-Jul-12 00:31S 32°41' E 152°25'611.0
2017-Jul-12 00:00S 32°37' E 152°29'611.0
2017-Jul-11 23:30S 32°33' E 152°34'611.4
2017-Jul-11 23:00S 32°29' E 152°38'611.2
2017-Jul-11 22:29S 32°24' E 152°41'711.8
2017-Jul-11 21:53S 32°17' E 152°44'1412.1
2017-Jul-11 20:43S 32°04' E 152°51'25812.2
2017-Jul-10 23:31S 27°52' E 153°57'013.2
2017-Jul-10 23:30S 27°52' E 153°57'713.0
2017-Jul-10 23:00S 27°45' E 153°57'713.2
2017-Jul-10 22:27S 27°38' E 153°57'3612.7
2017-Jul-10 19:37S 27°02' E 153°59'  

Dump ship's entire track history